sensor_id;sensor_type;location;lat;lon;timestamp;temperature;humidity
38265;DHT22;24062;47.480;8.768;2023-10-31T00:00:44;21.80;65.20
38265;DHT22;24062;47.480;8.768;2023-10-31T00:03:13;21.80;65.20
38265;DHT22;24062;47.480;8.768;2023-10-31T00:05:40;21.70;65.10
38265;DHT22;24062;47.480;8.768;2023-10-31T00:08:06;21.70;65.20
38265;DHT22;24062;47.480;8.768;2023-10-31T00:10:33;21.80;65.30
38265;DHT22;24062;47.480;8.768;2023-10-31T00:13:00;21.70;65.20
38265;DHT22;24062;47.480;8.768;2023-10-31T00:15:27;21.70;65.30
38265;DHT22;24062;47.480;8.768;2023-10-31T00:17:56;21.70;65.30
38265;DHT22;24062;47.480;8.768;2023-10-31T00:20:24;21.70;65.30
38265;DHT22;24062;47.480;8.768;2023-10-31T00:22:51;21.70;65.30
38265;DHT22;24062;47.480;8.768;2023-10-31T00:25:18;21.70;65.30
38265;DHT22;24062;47.480;8.768;2023-10-31T00:27:45;21.60;65.20
38265;DHT22;24062;47.480;8.768;2023-10-31T00:30:12;21.70;65.40
38265;DHT22;24062;47.480;8.768;2023-10-31T00:32:39;21.60;65.30
38265;DHT22;24062;47.480;8.768;2023-10-31T00:35:07;21.70;65.30
38265;DHT22;24062;47.480;8.768;2023-10-31T00:37:35;21.60;65.30
38265;DHT22;24062;47.480;8.768;2023-10-31T00:40:02;21.60;65.30
38265;DHT22;24062;47.480;8.768;2023-10-31T00:42:29;21.60;65.30
38265;DHT22;24062;47.480;8.768;2023-10-31T00:44:56;21.60;66.10
38265;DHT22;24062;47.480;8.768;2023-10-31T00:47:23;21.60;65.40
38265;DHT22;24062;47.480;8.768;2023-10-31T00:49:50;21.50;65.40
38265;DHT22;24062;47.480;8.768;2023-10-31T00:52:18;21.50;65.40
38265;DHT22;24062;47.480;8.768;2023-10-31T00:54:47;21.50;65.40
38265;DHT22;24062;47.480;8.768;2023-10-31T00:57:14;21.50;65.40
38265;DHT22;24062;47.480;8.768;2023-10-31T00:59:40;21.50;65.50
38265;DHT22;24062;47.480;8.768;2023-10-31T01:02:07;21.50;65.50
38265;DHT22;24062;47.480;8.768;2023-10-31T01:04:36;21.50;65.50
38265;DHT22;24062;47.480;8.768;2023-10-31T01:07:03;21.50;65.50
38265;DHT22;24062;47.480;8.768;2023-10-31T01:09:30;21.50;65.60
38265;DHT22;24062;47.480;8.768;2023-10-31T01:11:58;21.50;65.60
38265;DHT22;24062;47.480;8.768;2023-10-31T01:14:25;21.50;65.60
38265;DHT22;24062;47.480;8.768;2023-10-31T01:16:52;21.50;65.60
38265;DHT22;24062;47.480;8.768;2023-10-31T01:19:19;21.50;65.60
38265;DHT22;24062;47.480;8.768;2023-10-31T01:21:46;21.40;65.50
38265;DHT22;24062;47.480;8.768;2023-10-31T01:24:13;21.40;65.50
38265;DHT22;24062;47.480;8.768;2023-10-31T01:26:40;21.40;65.50
38265;DHT22;24062;47.480;8.768;2023-10-31T01:29:08;21.40;65.50
38265;DHT22;24062;47.480;8.768;2023-10-31T01:31:35;21.40;65.50
38265;DHT22;24062;47.480;8.768;2023-10-31T01:34:03;21.40;65.60
38265;DHT22;24062;47.480;8.768;2023-10-31T01:36:30;21.40;65.50
38265;DHT22;24062;47.480;8.768;2023-10-31T01:38:56;21.40;65.50
38265;DHT22;24062;47.480;8.768;2023-10-31T01:41:24;21.40;65.50
38265;DHT22;24062;47.480;8.768;2023-10-31T01:43:51;21.30;65.50
38265;DHT22;24062;47.480;8.768;2023-10-31T01:46:19;21.40;65.60
38265;DHT22;24062;47.480;8.768;2023-10-31T01:48:46;21.30;65.60
38265;DHT22;24062;47.480;8.768;2023-10-31T01:51:14;21.30;65.50
38265;DHT22;24062;47.480;8.768;2023-10-31T01:53:41;21.30;65.50
38265;DHT22;24062;47.480;8.768;2023-10-31T01:56:08;21.30;65.50
38265;DHT22;24062;47.480;8.768;2023-10-31T01:58:36;21.30;65.60
38265;DHT22;24062;47.480;8.768;2023-10-31T02:01:04;21.30;65.60
38265;DHT22;24062;47.480;8.768;2023-10-31T02:03:33;21.30;65.60
38265;DHT22;24062;47.480;8.768;2023-10-31T02:06:00;21.30;65.50
38265;DHT22;24062;47.480;8.768;2023-10-31T02:08:27;21.30;65.60
38265;DHT22;24062;47.480;8.768;2023-10-31T02:10:54;21.30;65.60
38265;DHT22;24062;47.480;8.768;2023-10-31T02:13:21;21.30;65.60
38265;DHT22;24062;47.480;8.768;2023-10-31T02:15:48;21.30;65.60
38265;DHT22;24062;47.480;8.768;2023-10-31T02:18:15;21.30;65.60
38265;DHT22;24062;47.480;8.768;2023-10-31T02:20:44;21.20;65.50
38265;DHT22;24062;47.480;8.768;2023-10-31T02:23:14;21.20;65.60
38265;DHT22;24062;47.480;8.768;2023-10-31T02:25:41;21.20;65.70
38265;DHT22;24062;47.480;8.768;2023-10-31T02:28:08;21.20;65.70
38265;DHT22;24062;47.480;8.768;2023-10-31T02:30:35;21.20;65.70
38265;DHT22;24062;47.480;8.768;2023-10-31T02:33:02;21.10;65.60
38265;DHT22;24062;47.480;8.768;2023-10-31T02:35:29;21.20;65.80
38265;DHT22;24062;47.480;8.768;2023-10-31T02:37:56;21.10;65.70
38265;DHT22;24062;47.480;8.768;2023-10-31T02:40:25;21.20;65.90
38265;DHT22;24062;47.480;8.768;2023-10-31T02:42:52;21.10;65.80
38265;DHT22;24062;47.480;8.768;2023-10-31T02:45:19;21.10;65.80
38265;DHT22;24062;47.480;8.768;2023-10-31T02:47:46;21.10;65.80
38265;DHT22;24062;47.480;8.768;2023-10-31T02:50:13;21.10;65.80
38265;DHT22;24062;47.480;8.768;2023-10-31T02:52:40;21.10;65.80
38265;DHT22;24062;47.480;8.768;2023-10-31T02:55:07;21.10;65.80
38265;DHT22;24062;47.480;8.768;2023-10-31T02:57:35;21.10;65.80
38265;DHT22;24062;47.480;8.768;2023-10-31T03:00:03;21.10;65.80
38265;DHT22;24062;47.480;8.768;2023-10-31T03:02:30;21.10;65.80
38265;DHT22;24062;47.480;8.768;2023-10-31T03:04:57;21.10;65.80
38265;DHT22;24062;47.480;8.768;2023-10-31T03:07:24;21.10;65.80
38265;DHT22;24062;47.480;8.768;2023-10-31T03:09:51;21.10;65.80
38265;DHT22;24062;47.480;8.768;2023-10-31T03:12:19;21.10;65.80
38265;DHT22;24062;47.480;8.768;2023-10-31T03:14:48;21.10;65.80
38265;DHT22;24062;47.480;8.768;2023-10-31T03:17:15;21.10;65.80
38265;DHT22;24062;47.480;8.768;2023-10-31T03:19:41;21.10;65.80
38265;DHT22;24062;47.480;8.768;2023-10-31T03:22:09;21.10;65.90
38265;DHT22;24062;47.480;8.768;2023-10-31T03:24:36;21.20;66.00
38265;DHT22;24062;47.480;8.768;2023-10-31T03:27:03;21.10;65.90
38265;DHT22;24062;47.480;8.768;2023-10-31T03:29:30;21.20;65.90
38265;DHT22;24062;47.480;8.768;2023-10-31T03:31:58;21.20;65.90
38265;DHT22;24062;47.480;8.768;2023-10-31T03:34:25;21.30;65.90
38265;DHT22;24062;47.480;8.768;2023-10-31T03:36:52;21.30;65.80
38265;DHT22;24062;47.480;8.768;2023-10-31T03:39:19;21.30;65.60
38265;DHT22;24062;47.480;8.768;2023-10-31T03:41:46;21.40;65.70
38265;DHT22;24062;47.480;8.768;2023-10-31T03:44:13;21.40;65.70
38265;DHT22;24062;47.480;8.768;2023-10-31T03:46:40;21.40;65.60
38265;DHT22;24062;47.480;8.768;2023-10-31T03:49:08;21.40;65.50
38265;DHT22;24062;47.480;8.768;2023-10-31T03:51:35;21.40;65.50
38265;DHT22;24062;47.480;8.768;2023-10-31T03:54:02;21.50;65.60
38265;DHT22;24062;47.480;8.768;2023-10-31T03:56:29;21.50;65.60
38265;DHT22;24062;47.480;8.768;2023-10-31T03:58:56;21.50;65.60
38265;DHT22;24062;47.480;8.768;2023-10-31T04:01:23;21.40;65.40
38265;DHT22;24062;47.480;8.768;2023-10-31T04:03:50;21.50;65.50
38265;DHT22;24062;47.480;8.768;2023-10-31T04:06:19;21.50;65.40
38265;DHT22;24062;47.480;8.768;2023-10-31T04:08:45;21.50;65.40
38265;DHT22;24062;47.480;8.768;2023-10-31T04:11:11;21.50;65.40
38265;DHT22;24062;47.480;8.768;2023-10-31T04:13:38;21.50;65.30
38265;DHT22;24062;47.480;8.768;2023-10-31T04:16:06;21.60;65.40
38265;DHT22;24062;47.480;8.768;2023-10-31T04:18:33;21.60;65.30
38265;DHT22;24062;47.480;8.768;2023-10-31T04:21:00;21.60;65.30
38265;DHT22;24062;47.480;8.768;2023-10-31T04:23:28;21.60;65.30
38265;DHT22;24062;47.480;8.768;2023-10-31T04:25:55;21.60;65.30
38265;DHT22;24062;47.480;8.768;2023-10-31T04:28:22;21.60;65.20
38265;DHT22;24062;47.480;8.768;2023-10-31T04:30:49;21.60;65.20
38265;DHT22;24062;47.480;8.768;2023-10-31T04:33:16;21.70;65.20
38265;DHT22;24062;47.480;8.768;2023-10-31T04:35:43;21.70;65.20
38265;DHT22;24062;47.480;8.768;2023-10-31T04:38:10;21.70;65.20
38265;DHT22;24062;47.480;8.768;2023-10-31T04:40:38;21.70;65.20
38265;DHT22;24062;47.480;8.768;2023-10-31T04:43:05;21.70;65.20
38265;DHT22;24062;47.480;8.768;2023-10-31T04:45:32;21.60;65.10
38265;DHT22;24062;47.480;8.768;2023-10-31T04:47:59;21.60;65.10
38265;DHT22;24062;47.480;8.768;2023-10-31T04:50:26;21.70;65.20
38265;DHT22;24062;47.480;8.768;2023-10-31T04:52:52;21.70;65.90
38265;DHT22;24062;47.480;8.768;2023-10-31T04:55:19;21.70;65.10
38265;DHT22;24062;47.480;8.768;2023-10-31T04:57:48;21.70;65.10
38265;DHT22;24062;47.480;8.768;2023-10-31T05:00:15;21.70;65.10
38265;DHT22;24062;47.480;8.768;2023-10-31T05:02:42;21.70;65.10
38265;DHT22;24062;47.480;8.768;2023-10-31T05:05:09;21.70;65.10
38265;DHT22;24062;47.480;8.768;2023-10-31T05:07:36;21.70;65.00
38265;DHT22;24062;47.480;8.768;2023-10-31T05:10:04;21.70;65.00
38265;DHT22;24062;47.480;8.768;2023-10-31T05:12:31;21.70;65.00
38265;DHT22;24062;47.480;8.768;2023-10-31T05:14:59;21.70;65.00
38265;DHT22;24062;47.480;8.768;2023-10-31T05:17:26;21.80;65.10
38265;DHT22;24062;47.480;8.768;2023-10-31T05:19:53;21.80;65.10
38265;DHT22;24062;47.480;8.768;2023-10-31T05:22:20;21.80;65.10
38265;DHT22;24062;47.480;8.768;2023-10-31T05:24:46;21.80;65.10
38265;DHT22;24062;47.480;8.768;2023-10-31T05:27:14;21.80;65.10
38265;DHT22;24062;47.480;8.768;2023-10-31T05:29:41;21.80;65.00
38265;DHT22;24062;47.480;8.768;2023-10-31T05:32:09;21.80;65.00
38265;DHT22;24062;47.480;8.768;2023-10-31T05:34:36;21.80;65.00
38265;DHT22;24062;47.480;8.768;2023-10-31T05:37:03;21.80;65.00
38265;DHT22;24062;47.480;8.768;2023-10-31T05:39:31;21.80;65.00
38265;DHT22;24062;47.480;8.768;2023-10-31T05:41:58;21.80;65.00
38265;DHT22;24062;47.480;8.768;2023-10-31T05:44:25;21.80;65.00
38265;DHT22;24062;47.480;8.768;2023-10-31T05:46:52;21.80;65.00
38265;DHT22;24062;47.480;8.768;2023-10-31T05:49:21;21.80;65.00
38265;DHT22;24062;47.480;8.768;2023-10-31T05:51:50;21.80;65.00
38265;DHT22;24062;47.480;8.768;2023-10-31T05:54:17;21.80;65.00
38265;DHT22;24062;47.480;8.768;2023-10-31T05:56:44;21.80;65.00
38265;DHT22;24062;47.480;8.768;2023-10-31T05:59:11;21.80;65.00
38265;DHT22;24062;47.480;8.768;2023-10-31T06:01:38;21.80;65.00
38265;DHT22;24062;47.480;8.768;2023-10-31T06:04:06;21.80;65.00
38265;DHT22;24062;47.480;8.768;2023-10-31T06:06:37;21.80;65.00
38265;DHT22;24062;47.480;8.768;2023-10-31T06:09:04;21.80;64.90
38265;DHT22;24062;47.480;8.768;2023-10-31T06:11:31;21.80;65.00
38265;DHT22;24062;47.480;8.768;2023-10-31T06:13:59;21.80;64.90
38265;DHT22;24062;47.480;8.768;2023-10-31T06:16:26;21.80;64.90
38265;DHT22;24062;47.480;8.768;2023-10-31T06:18:52;21.80;64.90
38265;DHT22;24062;47.480;8.768;2023-10-31T06:21:19;21.80;65.00
38265;DHT22;24062;47.480;8.768;2023-10-31T06:23:48;21.80;65.00
38265;DHT22;24062;47.480;8.768;2023-10-31T06:26:15;21.80;65.00
38265;DHT22;24062;47.480;8.768;2023-10-31T06:28:42;21.80;65.10
38265;DHT22;24062;47.480;8.768;2023-10-31T06:31:09;21.80;65.00
38265;DHT22;24062;47.480;8.768;2023-10-31T06:33:36;21.80;65.00
38265;DHT22;24062;47.480;8.768;2023-10-31T06:36:03;21.80;65.00
38265;DHT22;24062;47.480;8.768;2023-10-31T06:38:30;21.80;65.00
38265;DHT22;24062;47.480;8.768;2023-10-31T06:40:58;21.90;65.10
38265;DHT22;24062;47.480;8.768;2023-10-31T06:43:25;21.90;65.00
38265;DHT22;24062;47.480;8.768;2023-10-31T06:45:53;21.90;65.10
38265;DHT22;24062;47.480;8.768;2023-10-31T06:48:20;21.90;65.10
38265;DHT22;24062;47.480;8.768;2023-10-31T06:50:47;21.90;65.10
38265;DHT22;24062;47.480;8.768;2023-10-31T06:53:14;21.90;65.10
38265;DHT22;24062;47.480;8.768;2023-10-31T06:55:41;21.90;65.00
38265;DHT22;24062;47.480;8.768;2023-10-31T06:58:09;21.90;65.10
38265;DHT22;24062;47.480;8.768;2023-10-31T07:00:36;21.90;65.00
38265;DHT22;24062;47.480;8.768;2023-10-31T07:03:03;21.90;65.00
38265;DHT22;24062;47.480;8.768;2023-10-31T07:05:34;21.90;65.00
38265;DHT22;24062;47.480;8.768;2023-10-31T07:08:01;21.90;65.00
38265;DHT22;24062;47.480;8.768;2023-10-31T07:10:29;21.90;64.90
38265;DHT22;24062;47.480;8.768;2023-10-31T07:12:56;21.90;64.90
38265;DHT22;24062;47.480;8.768;2023-10-31T07:15:25;21.90;64.90
38265;DHT22;24062;47.480;8.768;2023-10-31T07:17:52;21.90;64.90
38265;DHT22;24062;47.480;8.768;2023-10-31T07:20:19;21.90;64.90
38265;DHT22;24062;47.480;8.768;2023-10-31T07:22:46;21.90;64.90
38265;DHT22;24062;47.480;8.768;2023-10-31T07:25:13;21.90;64.90
38265;DHT22;24062;47.480;8.768;2023-10-31T07:27:40;22.00;65.00
38265;DHT22;24062;47.480;8.768;2023-10-31T07:30:08;22.00;65.00
38265;DHT22;24062;47.480;8.768;2023-10-31T07:32:36;22.00;64.90
38265;DHT22;24062;47.480;8.768;2023-10-31T07:35:03;22.00;64.90
38265;DHT22;24062;47.480;8.768;2023-10-31T07:37:30;22.00;64.90
38265;DHT22;24062;47.480;8.768;2023-10-31T07:39:57;22.00;64.80
38265;DHT22;24062;47.480;8.768;2023-10-31T07:42:24;21.90;64.60
38265;DHT22;24062;47.480;8.768;2023-10-31T07:44:51;22.00;64.80
38265;DHT22;24062;47.480;8.768;2023-10-31T07:47:18;22.00;64.80
38265;DHT22;24062;47.480;8.768;2023-10-31T07:49:46;22.00;64.80
38265;DHT22;24062;47.480;8.768;2023-10-31T07:52:13;22.00;64.70
38265;DHT22;24062;47.480;8.768;2023-10-31T07:54:40;22.00;64.70
38265;DHT22;24062;47.480;8.768;2023-10-31T07:57:07;22.00;64.80
38265;DHT22;24062;47.480;8.768;2023-10-31T07:59:34;22.00;64.60
38265;DHT22;24062;47.480;8.768;2023-10-31T08:02:02;22.00;64.60
38265;DHT22;24062;47.480;8.768;2023-10-31T08:04:29;22.00;64.60
38265;DHT22;24062;47.480;8.768;2023-10-31T08:06:58;22.00;64.60
38265;DHT22;24062;47.480;8.768;2023-10-31T08:09:24;22.00;64.60
38265;DHT22;24062;47.480;8.768;2023-10-31T08:11:51;22.00;64.60
38265;DHT22;24062;47.480;8.768;2023-10-31T08:14:18;22.00;64.50
38265;DHT22;24062;47.480;8.768;2023-10-31T08:16:47;22.00;64.50
38265;DHT22;24062;47.480;8.768;2023-10-31T08:19:14;22.00;64.40
38265;DHT22;24062;47.480;8.768;2023-10-31T08:21:41;22.00;64.40
38265;DHT22;24062;47.480;8.768;2023-10-31T08:24:09;22.00;64.50
38265;DHT22;24062;47.480;8.768;2023-10-31T08:26:39;22.00;64.40
38265;DHT22;24062;47.480;8.768;2023-10-31T08:29:06;22.10;64.50
38265;DHT22;24062;47.480;8.768;2023-10-31T08:31:33;22.10;64.50
38265;DHT22;24062;47.480;8.768;2023-10-31T08:34:00;22.10;64.50
38265;DHT22;24062;47.480;8.768;2023-10-31T08:36:26;22.10;64.40
38265;DHT22;24062;47.480;8.768;2023-10-31T08:38:54;22.10;64.30
38265;DHT22;24062;47.480;8.768;2023-10-31T08:41:22;22.10;64.30
38265;DHT22;24062;47.480;8.768;2023-10-31T08:43:49;22.10;64.30
38265;DHT22;24062;47.480;8.768;2023-10-31T08:46:16;22.10;64.30
38265;DHT22;24062;47.480;8.768;2023-10-31T08:48:43;22.10;64.20
38265;DHT22;24062;47.480;8.768;2023-10-31T08:51:10;22.10;64.20
38265;DHT22;24062;47.480;8.768;2023-10-31T08:53:37;22.10;64.20
38265;DHT22;24062;47.480;8.768;2023-10-31T08:56:04;22.20;64.30
38265;DHT22;24062;47.480;8.768;2023-10-31T08:58:33;22.20;64.20
38265;DHT22;24062;47.480;8.768;2023-10-31T09:01:00;22.10;64.10
38265;DHT22;24062;47.480;8.768;2023-10-31T09:03:27;22.20;64.20
38265;DHT22;24062;47.480;8.768;2023-10-31T09:05:53;22.10;64.10
38265;DHT22;24062;47.480;8.768;2023-10-31T09:08:20;22.10;64.10
38265;DHT22;24062;47.480;8.768;2023-10-31T09:10:47;22.10;64.00
38265;DHT22;24062;47.480;8.768;2023-10-31T09:13:14;22.20;64.10
38265;DHT22;24062;47.480;8.768;2023-10-31T09:15:43;22.20;64.00
38265;DHT22;24062;47.480;8.768;2023-10-31T09:18:11;22.20;64.00
38265;DHT22;24062;47.480;8.768;2023-10-31T09:20:38;22.20;63.90
38265;DHT22;24062;47.480;8.768;2023-10-31T09:23:05;22.20;63.90
38265;DHT22;24062;47.480;8.768;2023-10-31T09:25:32;22.30;63.90
38265;DHT22;24062;47.480;8.768;2023-10-31T09:27:59;22.30;63.90
38265;DHT22;24062;47.480;8.768;2023-10-31T09:30:26;22.30;63.90
38265;DHT22;24062;47.480;8.768;2023-10-31T09:32:55;22.30;64.00
38265;DHT22;24062;47.480;8.768;2023-10-31T09:35:22;22.30;63.80
38265;DHT22;24062;47.480;8.768;2023-10-31T09:37:48;22.30;63.70
38265;DHT22;24062;47.480;8.768;2023-10-31T09:40:16;22.40;63.70
38265;DHT22;24062;47.480;8.768;2023-10-31T09:42:44;22.50;63.70
38265;DHT22;24062;47.480;8.768;2023-10-31T09:45:11;22.50;63.40
38265;DHT22;24062;47.480;8.768;2023-10-31T09:47:38;22.60;63.20
38265;DHT22;24062;47.480;8.768;2023-10-31T09:50:07;22.60;63.10
38265;DHT22;24062;47.480;8.768;2023-10-31T09:52:36;22.60;63.80
38265;DHT22;24062;47.480;8.768;2023-10-31T09:55:04;22.60;63.00
38265;DHT22;24062;47.480;8.768;2023-10-31T09:57:32;22.60;63.90
38265;DHT22;24062;47.480;8.768;2023-10-31T09:59:59;22.60;63.10
38265;DHT22;24062;47.480;8.768;2023-10-31T10:02:26;22.70;63.10
38265;DHT22;24062;47.480;8.768;2023-10-31T10:04:53;22.70;62.90
38265;DHT22;24062;47.480;8.768;2023-10-31T10:07:21;22.80;62.80
38265;DHT22;24062;47.480;8.768;2023-10-31T10:09:48;22.80;62.70
38265;DHT22;24062;47.480;8.768;2023-10-31T10:12:16;22.90;62.60
38265;DHT22;24062;47.480;8.768;2023-10-31T10:14:45;22.90;62.50
38265;DHT22;24062;47.480;8.768;2023-10-31T10:17:16;23.00;62.40
38265;DHT22;24062;47.480;8.768;2023-10-31T10:19:44;23.00;62.30
38265;DHT22;24062;47.480;8.768;2023-10-31T10:22:10;23.00;62.20
38265;DHT22;24062;47.480;8.768;2023-10-31T10:24:44;23.00;62.20
38265;DHT22;24062;47.480;8.768;2023-10-31T10:27:11;23.00;62.20
38265;DHT22;24062;47.480;8.768;2023-10-31T10:29:38;23.00;62.10
38265;DHT22;24062;47.480;8.768;2023-10-31T10:32:07;23.10;62.10
38265;DHT22;24062;47.480;8.768;2023-10-31T10:34:34;23.00;62.10
38265;DHT22;24062;47.480;8.768;2023-10-31T10:37:05;23.00;62.10
38265;DHT22;24062;47.480;8.768;2023-10-31T10:39:33;23.00;62.00
38265;DHT22;24062;47.480;8.768;2023-10-31T10:42:07;23.00;62.10
38265;DHT22;24062;47.480;8.768;2023-10-31T10:44:36;23.00;62.10
38265;DHT22;24062;47.480;8.768;2023-10-31T10:47:04;23.00;62.10
38265;DHT22;24062;47.480;8.768;2023-10-31T10:49:33;23.00;62.10
38265;DHT22;24062;47.480;8.768;2023-10-31T10:52:11;23.00;63.00
38265;DHT22;24062;47.480;8.768;2023-10-31T10:54:45;22.90;62.20
38265;DHT22;24062;47.480;8.768;2023-10-31T10:57:21;22.90;62.30
38265;DHT22;24062;47.480;8.768;2023-10-31T10:59:52;22.90;62.40
38265;DHT22;24062;47.480;8.768;2023-10-31T11:02:23;22.90;62.40
38265;DHT22;24062;47.480;8.768;2023-10-31T11:04:51;22.80;62.30
38265;DHT22;24062;47.480;8.768;2023-10-31T11:07:20;22.90;62.40
38265;DHT22;24062;47.480;8.768;2023-10-31T11:09:48;22.80;62.40
38265;DHT22;24062;47.480;8.768;2023-10-31T11:12:18;22.90;62.40
38265;DHT22;24062;47.480;8.768;2023-10-31T11:14:45;22.90;62.30
38265;DHT22;24062;47.480;8.768;2023-10-31T11:17:22;23.00;62.30
38265;DHT22;24062;47.480;8.768;2023-10-31T11:19:51;23.00;62.10
38265;DHT22;24062;47.480;8.768;2023-10-31T11:22:19;23.00;62.00
38265;DHT22;24062;47.480;8.768;2023-10-31T11:24:49;23.10;62.00
38265;DHT22;24062;47.480;8.768;2023-10-31T11:27:17;23.10;62.00
38265;DHT22;24062;47.480;8.768;2023-10-31T11:29:45;23.00;62.00
38265;DHT22;24062;47.480;8.768;2023-10-31T11:32:12;23.00;62.00
38265;DHT22;24062;47.480;8.768;2023-10-31T11:34:39;23.00;62.00
38265;DHT22;24062;47.480;8.768;2023-10-31T11:37:24;23.00;62.10
38265;DHT22;24062;47.480;8.768;2023-10-31T11:40:17;23.00;62.20
38265;DHT22;24062;47.480;8.768;2023-10-31T11:42:47;22.90;62.10
38265;DHT22;24062;47.480;8.768;2023-10-31T11:45:33;22.90;62.10
38265;DHT22;24062;47.480;8.768;2023-10-31T11:48:00;22.90;62.20
38265;DHT22;24062;47.480;8.768;2023-10-31T11:50:27;22.90;62.30
38265;DHT22;24062;47.480;8.768;2023-10-31T11:53:05;22.90;62.20
38265;DHT22;24062;47.480;8.768;2023-10-31T11:55:33;22.90;62.20
38265;DHT22;24062;47.480;8.768;2023-10-31T11:58:17;22.90;62.20
38265;DHT22;24062;47.480;8.768;2023-10-31T12:00:45;22.90;62.20
38265;DHT22;24062;47.480;8.768;2023-10-31T12:03:15;22.90;63.10
38265;DHT22;24062;47.480;8.768;2023-10-31T12:05:51;22.80;62.10
38265;DHT22;24062;47.480;8.768;2023-10-31T12:08:25;22.90;62.20
38265;DHT22;24062;47.480;8.768;2023-10-31T12:10:52;22.90;62.20
38265;DHT22;24062;47.480;8.768;2023-10-31T12:13:20;23.00;62.30
38265;DHT22;24062;47.480;8.768;2023-10-31T12:15:53;23.00;62.20
38265;DHT22;24062;47.480;8.768;2023-10-31T12:18:20;22.90;62.10
38265;DHT22;24062;47.480;8.768;2023-10-31T12:20:48;22.90;62.10
38265;DHT22;24062;47.480;8.768;2023-10-31T12:23:15;22.90;62.20
38265;DHT22;24062;47.480;8.768;2023-10-31T12:25:47;22.80;62.20
38265;DHT22;24062;47.480;8.768;2023-10-31T12:28:20;22.90;62.40
38265;DHT22;24062;47.480;8.768;2023-10-31T12:30:48;22.80;62.30
38265;DHT22;24062;47.480;8.768;2023-10-31T12:33:15;22.80;62.30
38265;DHT22;24062;47.480;8.768;2023-10-31T12:35:43;22.80;62.40
38265;DHT22;24062;47.480;8.768;2023-10-31T12:38:11;22.80;62.40
38265;DHT22;24062;47.480;8.768;2023-10-31T12:40:40;22.80;63.20
38265;DHT22;24062;47.480;8.768;2023-10-31T12:43:07;22.80;62.40
38265;DHT22;24062;47.480;8.768;2023-10-31T12:45:36;22.80;62.50
38265;DHT22;24062;47.480;8.768;2023-10-31T12:48:05;22.80;62.40
38265;DHT22;24062;47.480;8.768;2023-10-31T12:50:33;22.80;62.50
38265;DHT22;24062;47.480;8.768;2023-10-31T12:53:02;22.70;62.50
38265;DHT22;24062;47.480;8.768;2023-10-31T12:55:30;22.80;62.60
38265;DHT22;24062;47.480;8.768;2023-10-31T12:57:58;22.70;62.60
38265;DHT22;24062;47.480;8.768;2023-10-31T13:00:31;22.70;62.60
38265;DHT22;24062;47.480;8.768;2023-10-31T13:03:04;22.70;62.40
38265;DHT22;24062;47.480;8.768;2023-10-31T13:05:31;22.70;62.50
38265;DHT22;24062;47.480;8.768;2023-10-31T13:07:59;22.70;62.50
38265;DHT22;24062;47.480;8.768;2023-10-31T13:10:29;22.70;62.60
38265;DHT22;24062;47.480;8.768;2023-10-31T13:12:58;22.70;62.60
38265;DHT22;24062;47.480;8.768;2023-10-31T13:15:25;22.70;62.60
38265;DHT22;24062;47.480;8.768;2023-10-31T13:17:52;22.70;62.60
38265;DHT22;24062;47.480;8.768;2023-10-31T13:20:21;22.70;62.60
38265;DHT22;24062;47.480;8.768;2023-10-31T13:22:48;22.70;62.60
38265;DHT22;24062;47.480;8.768;2023-10-31T13:25:16;22.70;62.60
38265;DHT22;24062;47.480;8.768;2023-10-31T13:27:44;22.70;62.60
38265;DHT22;24062;47.480;8.768;2023-10-31T13:30:16;22.70;62.60
38265;DHT22;24062;47.480;8.768;2023-10-31T13:32:44;22.80;62.60
38265;DHT22;24062;47.480;8.768;2023-10-31T13:35:11;22.80;62.50
38265;DHT22;24062;47.480;8.768;2023-10-31T13:37:41;22.80;62.50
38265;DHT22;24062;47.480;8.768;2023-10-31T13:40:08;22.80;62.50
38265;DHT22;24062;47.480;8.768;2023-10-31T13:42:35;22.70;62.30
38265;DHT22;24062;47.480;8.768;2023-10-31T13:45:03;22.80;62.40
38265;DHT22;24062;47.480;8.768;2023-10-31T13:47:30;22.80;62.40
38265;DHT22;24062;47.480;8.768;2023-10-31T13:49:57;22.80;62.40
38265;DHT22;24062;47.480;8.768;2023-10-31T13:52:24;22.80;62.40
38265;DHT22;24062;47.480;8.768;2023-10-31T13:54:52;22.80;62.40
38265;DHT22;24062;47.480;8.768;2023-10-31T13:57:19;22.80;62.50
38265;DHT22;24062;47.480;8.768;2023-10-31T13:59:47;22.70;62.40
38265;DHT22;24062;47.480;8.768;2023-10-31T14:02:14;22.70;62.40
38265;DHT22;24062;47.480;8.768;2023-10-31T14:04:41;22.70;62.40
38265;DHT22;24062;47.480;8.768;2023-10-31T14:07:08;22.70;62.40
38265;DHT22;24062;47.480;8.768;2023-10-31T14:09:35;22.70;62.50
38265;DHT22;24062;47.480;8.768;2023-10-31T14:12:04;22.70;62.40
38265;DHT22;24062;47.480;8.768;2023-10-31T14:14:33;22.70;62.50
38265;DHT22;24062;47.480;8.768;2023-10-31T14:17:00;22.70;62.50
38265;DHT22;24062;47.480;8.768;2023-10-31T14:19:27;22.70;62.60
38265;DHT22;24062;47.480;8.768;2023-10-31T14:21:54;22.70;62.60
38265;DHT22;24062;47.480;8.768;2023-10-31T14:24:21;22.60;62.50
38265;DHT22;24062;47.480;8.768;2023-10-31T14:26:49;22.70;62.60
38265;DHT22;24062;47.480;8.768;2023-10-31T14:29:17;22.70;62.90
38265;DHT22;24062;47.480;8.768;2023-10-31T14:31:44;22.70;62.60
38265;DHT22;24062;47.480;8.768;2023-10-31T14:34:11;22.70;62.60
38265;DHT22;24062;47.480;8.768;2023-10-31T14:36:38;22.70;62.60
38265;DHT22;24062;47.480;8.768;2023-10-31T14:39:05;22.60;62.40
38265;DHT22;24062;47.480;8.768;2023-10-31T14:41:32;22.70;62.60
38265;DHT22;24062;47.480;8.768;2023-10-31T14:43:59;22.60;62.50
38265;DHT22;24062;47.480;8.768;2023-10-31T14:46:29;22.70;62.60
38265;DHT22;24062;47.480;8.768;2023-10-31T14:48:57;22.60;62.40
38265;DHT22;24062;47.480;8.768;2023-10-31T14:51:24;22.70;62.60
38265;DHT22;24062;47.480;8.768;2023-10-31T14:53:51;22.60;62.40
38265;DHT22;24062;47.480;8.768;2023-10-31T14:56:18;22.70;62.60
38265;DHT22;24062;47.480;8.768;2023-10-31T14:58:46;22.70;62.50
38265;DHT22;24062;47.480;8.768;2023-10-31T15:01:13;22.60;62.40
38265;DHT22;24062;47.480;8.768;2023-10-31T15:03:43;22.70;62.50
38265;DHT22;24062;47.480;8.768;2023-10-31T15:06:10;22.70;62.50
38265;DHT22;24062;47.480;8.768;2023-10-31T15:08:36;22.70;62.50
38265;DHT22;24062;47.480;8.768;2023-10-31T15:11:04;22.70;62.50
38265;DHT22;24062;47.480;8.768;2023-10-31T15:13:31;22.60;62.40
38265;DHT22;24062;47.480;8.768;2023-10-31T15:15:57;22.70;62.50
38265;DHT22;24062;47.480;8.768;2023-10-31T15:18:24;22.60;62.40
38265;DHT22;24062;47.480;8.768;2023-10-31T15:20:53;22.60;62.40
38265;DHT22;24062;47.480;8.768;2023-10-31T15:23:23;22.60;62.40
38265;DHT22;24062;47.480;8.768;2023-10-31T15:25:51;22.60;62.40
38265;DHT22;24062;47.480;8.768;2023-10-31T15:28:18;22.60;62.40
38265;DHT22;24062;47.480;8.768;2023-10-31T15:30:45;22.60;62.40
38265;DHT22;24062;47.480;8.768;2023-10-31T15:33:13;22.60;62.50